Date,TemperatureHighF,TemperatureAvgF,TemperatureLowF,DewpointHighF,DewpointAvgF,DewpointLowF,HumidityHigh,HumidityAvg,HumidityLow,PressureMaxIn,PressureMinIn,WindSpeedMaxMPH,WindSpeedAvgMPH,GustSpeedMaxMPH,PrecipitationSumIn
2013-4-1,49.3,43.9,37.0,15.3,9.7,-1.5,28,24,19,29.62,29.35,17,6,17,0.00
2013-4-2,50.2,38.6,28.0,9.5,1.0,-3.9,26,20,17,29.71,29.62,11,2,11,0.00
2013-4-3,53.4,42.8,31.1,11.0,3.9,-2.6,28,20,16,29.76,29.59,15,4,15,0.00
2013-4-4,62.4,49.0,34.9,15.7,7.3,-0.9,22,18,16,29.59,29.41,11,2,11,0.00
2013-4-5,68.9,54.7,40.1,19.0,11.1,2.5,23,17,15,29.56,29.41,10,4,12,0.00
2013-4-6,75.2,64.3,52.7,21.2,16.2,10.4,18,16,13,29.41,29.12,20,5,20,0.00
2013-4-7,80.4,68.1,57.7,41.3,21.9,13.2,43,18,12,29.35,29.17,17,4,23,0.12
2013-4-8,81.3,70.0,61.5,41.1,32.2,23.5,44,27,14,29.26,29.12,15,5,15,0.00
2013-4-9,80.2,71.3,65.3,39.4,35.1,30.4,34,27,20,29.26,29.17,21,4,21,0.00
2013-4-10,71.8,65.4,58.5,68.6,53.6,38.6,98,70,32,29.23,28.97,37,4,40,1.04
2013-4-11,60.8,57.4,51.6,60.2,56.8,51.1,98,98,98,29.09,29.06,22,6,22,0.09
2013-4-15,52.0,51.8,51.6,50.3,50.2,50.0,94,94,94,29.29,29.29,29,11,29,0.00
2013-4-16,52.0,51.1,51.1,49.4,49.4,48.9,94,94,94,29.29,29.29,15,4,15,0.00
2013-4-17,83.7,78.5,76.1,45.4,40.0,32.6,31,26,16,29.17,29.09,14,5,14,0.00
2013-4-18,76.3,60.3,41.2,64.6,46.5,22.1,98,66,29,29.14,28.97,29,8,32,0.00
2013-4-19,51.1,43.2,37.6,21.8,12.1,3.2,46,30,16,29.41,29.12,32,12,34,0.00
2013-4-20,46.6,40.4,33.8,14.6,8.9,4.2,42,28,19,29.71,29.41,11,2,11,0.00
2013-4-21,64.0,53.0,42.6,17.0,11.0,4.5,23,18,16,29.76,29.59,17,6,17,0.00
2013-4-22,73.2,60.7,45.5,21.1,15.2,6.7,28,17,14,29.65,29.35,20,3,20,0.00
2013-4-25,65.7,61.0,54.7,17.1,14.9,11.3,18,16,15,29.71,29.65,13,3,13,0.00